Bloomfield, MT (59315)

7:18 AM MDT on August 22, 2014 (GMT -0600)
SE Bloomfield | Change Station
CLOSE
Current Station
Personal Weather Station
Location: Bloomfield, MT
Elevation: 2753 ft
Nearby Weather Stations

Elev 2753 ft 47.36 °N, 104.79 °W | Updated 4 seconds ago

Overcast
Overcast
59.8 °F
Feels Like 59.8 °F
N
6.0
Wind Variable Wind from ENE
Gusts 12.0 mph

Today
High -- | Low -- °F
--% Chance of Precip.
Yesterday
High -- | Low -- °F
Precip. -- in
6:05 AM 7:58 PM
Waning Crescent, 8% visible
Pressure 30.08 in
Visibility 10.0 miles
Clouds Overcast 500 ft
Dew Point 59 °F
Humidity 96%
Rainfall 0.00 in
Snow Depth Not available.
UV 0 out of 12
Pollen 3.10 out of 12
Air Quality Not available.
Flu Activity Not available.
METAR KGDV 221255Z AUTO 03004KT 10SM OVC005 16/16 A3008 RMK AO1

More Conditions Fewer Conditions

Pressure 30.08 in
Visibility 10.0 miles
Clouds Overcast 500 ft
Dew Point 59 °F
Humidity 96%
Rainfall 0.00 in
Snow Depth Not available.
UV 0 out of 12
Pollen 3.10 out of 12
Air Quality Not available.
Flu Activity Not available.
METAR KGDV 221255Z AUTO 03004KT 10SM OVC005 16/16 A3008 RMK AO1

More Conditions Fewer Conditions

10-Day Weather Forecast

Almanac

Astronomy

Aug. 22, 2014 Rise Set
Actual Time 6:05 AM MDT 7:58 PM MDT
Civil Twilight 5:32 AM MDT 8:31 PM MDT
Nautical Twilight 4:52 AM MDT 9:11 PM MDT
Astronomical Twilight 4:07 AM MDT 9:55 PM MDT
Moon 3:25 AM MDT 6:12 PM MDT
Length of Visible Light 14h 58m
Length of Day
13h 53m
Tomorrow will be 3m 11s shorter.
Waning Crescent, 8% of the Moon is Illuminated
Today
Waning Crescent
Aug 25
New
Sep 2
First Quarter
Sep 8
Full
Sep 15
Last Quarter

Today's Extremes

State Highs State Lows

Community

WunderPhotos

Upload Photos

1,746,160 photos uploaded!

Nearby

Snow Depth

Station Depth Elevation
Crystal Lake 1 in 6050 ft
Rocky Boy 0 in 4700 ft
Daisy Peak 0 in 7600 ft
Cole Creek 1 in 7850 ft
Burnt Mountain 1 in 5880 ft

Earthquake Activity

City Distance Mag. Time & Date
No recent earthquake activity has been reported nearby.
Minimum magnitude displayed is 2.5.

Coastal Water Temperatures

Place Temperature
No Stations Reporting

Nearby Weather Stations